createdAt,value
2022-09-09T00:01:34.286Z,0.40
2022-09-09T00:04:15.956Z,0.40
2022-09-09T00:06:55.505Z,0.40
2022-09-09T00:09:40.313Z,0.30
2022-09-09T00:12:15.747Z,0.50
2022-09-09T00:14:46.662Z,0.50
2022-09-09T00:17:31.704Z,0.30
2022-09-09T00:20:12.346Z,0.40
2022-09-09T00:22:44.477Z,0.40
2022-09-09T00:25:28.351Z,0.50
2022-09-09T00:27:55.539Z,0.45
2022-09-09T00:30:28.162Z,0.45
2022-09-09T00:32:59.205Z,0.40
2022-09-09T00:35:37.560Z,0.60
2022-09-09T00:38:15.073Z,0.50
2022-09-09T00:40:54.298Z,0.70
2022-09-09T00:43:28.903Z,0.50
2022-09-09T00:45:55.332Z,0.70
2022-09-09T00:48:31.207Z,0.80
2022-09-09T00:51:03.716Z,0.90
2022-09-09T00:54:07.754Z,0.80
2022-09-09T00:56:52.118Z,1.02
2022-09-09T00:59:44.528Z,1.03
2022-09-09T01:02:29.786Z,0.70
2022-09-09T01:05:08.228Z,0.90
2022-09-09T01:07:35.267Z,1.10
2022-09-09T01:10:08.298Z,1.10
2022-09-09T01:12:42.754Z,0.90
2022-09-09T01:15:19.032Z,0.85
2022-09-09T01:17:45.399Z,0.98
2022-09-09T01:20:26.500Z,0.90
2022-09-09T01:23:30.387Z,1.05
2022-09-09T01:26:29.304Z,1.03
2022-09-09T01:28:55.855Z,1.30
2022-09-09T01:31:39.482Z,1.40
2022-09-09T01:34:16.327Z,1.05
2022-09-09T01:36:53.173Z,1.10
2022-09-09T01:39:21.200Z,1.30
2022-09-09T01:41:47.697Z,1.30
2022-09-09T01:44:14.501Z,1.08
2022-09-09T01:46:41.052Z,1.20
2022-09-09T01:49:09.154Z,1.40
2022-09-09T01:51:37.144Z,1.33
2022-09-09T01:54:04.810Z,1.20
2022-09-09T01:56:59.843Z,1.48
2022-09-09T01:59:47.313Z,1.50
2022-09-09T02:02:24.402Z,1.33
2022-09-09T02:04:58.181Z,1.60
2022-09-09T02:07:41.606Z,1.70
2022-09-09T02:10:43.530Z,1.67
2022-09-09T02:13:15.366Z,1.50
2022-09-09T02:15:53.354Z,1.38
2022-09-09T02:18:45.054Z,1.70
2022-09-09T02:21:12.785Z,1.67
2022-09-09T02:23:41.951Z,1.85
2022-09-09T02:26:11.405Z,1.95
2022-09-09T02:28:39.899Z,1.52
2022-09-09T02:31:06.862Z,1.57
2022-09-09T02:33:42.408Z,1.33
2022-09-09T02:36:12.040Z,1.98
2022-09-09T02:38:43.811Z,2.03
2022-09-09T02:41:10.204Z,1.55
2022-09-09T02:43:38.103Z,1.63
2022-09-09T02:46:42.344Z,1.80
2022-09-09T02:49:23.025Z,1.65
2022-09-09T02:51:58.809Z,2.20
2022-09-09T02:54:32.281Z,2.00
2022-09-09T02:57:28.313Z,2.40
2022-09-09T02:59:58.775Z,1.70
2022-09-09T03:02:26.255Z,1.80
2022-09-09T03:04:52.869Z,2.03
2022-09-09T03:07:20.437Z,2.10
2022-09-09T03:09:46.929Z,2.47
2022-09-09T03:12:13.822Z,1.73
2022-09-09T03:14:40.331Z,2.65
2022-09-09T03:17:07.121Z,2.47
2022-09-09T03:19:33.861Z,2.22
2022-09-09T03:22:01.213Z,2.70
2022-09-09T03:24:27.583Z,2.47
2022-09-09T03:26:54.050Z,2.17
2022-09-09T03:29:20.469Z,2.42
2022-09-09T03:31:47.318Z,2.40
2022-09-09T03:34:14.706Z,2.43
2022-09-09T03:36:42.103Z,2.60
2022-09-09T03:39:08.740Z,2.55
2022-09-09T03:41:35.150Z,2.45
2022-09-09T03:44:01.670Z,2.55
2022-09-09T03:46:28.125Z,2.87
2022-09-09T03:48:54.621Z,2.50
2022-09-09T03:51:22.152Z,2.60
2022-09-09T03:53:48.734Z,2.70
2022-09-09T03:56:15.322Z,2.47
2022-09-09T03:58:41.945Z,2.83
2022-09-09T04:01:14.440Z,3.00
2022-09-09T04:03:41.711Z,2.60
2022-09-09T04:06:10.502Z,2.53
2022-09-09T04:08:37.146Z,2.72
2022-09-09T04:11:07.080Z,2.87
2022-09-09T04:13:35.144Z,2.83
2022-09-09T04:16:04.523Z,2.58
2022-09-09T04:18:31.472Z,2.65
2022-09-09T04:20:58.758Z,3.30
2022-09-09T04:23:29.803Z,2.77
2022-09-09T04:25:58.526Z,2.45
2022-09-09T04:28:27.406Z,2.58
2022-09-09T04:30:54.067Z,2.80
2022-09-09T04:33:21.345Z,2.47
2022-09-09T04:35:49.627Z,2.57
2022-09-09T04:38:17.570Z,2.80
2022-09-09T04:40:47.490Z,2.60
2022-09-09T04:43:15.613Z,2.83
2022-09-09T04:45:47.684Z,2.20
2022-09-09T04:48:14.673Z,2.40
2022-09-09T04:50:41.603Z,2.33
2022-09-09T04:53:08.495Z,2.10
2022-09-09T04:55:38.617Z,2.50
2022-09-09T04:58:06.507Z,2.15
2022-09-09T05:00:34.777Z,2.30
2022-09-09T05:03:07.106Z,2.20
2022-09-09T05:05:37.328Z,2.08
2022-09-09T05:08:05.529Z,2.03
2022-09-09T05:10:32.705Z,2.17
2022-09-09T05:12:59.145Z,1.97
2022-09-09T05:15:25.577Z,1.98
2022-09-09T05:17:54.074Z,2.38
2022-09-09T05:20:20.520Z,2.13
2022-09-09T05:22:46.998Z,2.00
2022-09-09T05:25:13.660Z,1.87
2022-09-09T05:27:40.131Z,2.33
2022-09-09T05:30:07.110Z,1.80
2022-09-09T05:32:34.332Z,1.85
2022-09-09T05:35:00.784Z,2.08
2022-09-09T05:37:27.223Z,1.80
2022-09-09T05:39:54.322Z,2.05
2022-09-09T05:42:20.976Z,1.85
2022-09-09T05:44:47.389Z,2.10
2022-09-09T05:47:13.789Z,2.13
2022-09-09T05:49:40.274Z,1.93
2022-09-09T05:52:07.388Z,1.80
2022-09-09T05:54:33.831Z,1.88
2022-09-09T05:57:00.542Z,2.20
2022-09-09T05:59:27.011Z,2.05
2022-09-09T06:01:54.135Z,2.00
2022-09-09T06:04:25.245Z,1.73
2022-09-09T06:06:51.822Z,2.00
2022-09-09T06:09:18.289Z,1.77
2022-09-09T06:11:45.007Z,2.38
2022-09-09T06:14:11.433Z,2.30
2022-09-09T06:16:38.898Z,1.98
2022-09-09T06:19:05.454Z,2.20
2022-09-09T06:21:34.538Z,2.17
2022-09-09T06:24:01.642Z,1.65
2022-09-09T06:26:36.344Z,1.87
2022-09-09T06:29:04.890Z,1.92
2022-09-09T06:31:35.371Z,1.70
2022-09-09T06:34:02.228Z,1.90
2022-09-09T06:36:34.155Z,1.73
2022-09-09T06:39:01.561Z,1.50
2022-09-09T06:41:30.852Z,1.60
2022-09-09T06:43:57.727Z,1.55
2022-09-09T06:46:31.124Z,1.85
2022-09-09T06:49:00.636Z,1.33
2022-09-09T06:51:30.322Z,2.07
2022-09-09T06:53:59.189Z,1.70
2022-09-09T06:56:36.985Z,1.58
2022-09-09T06:59:06.070Z,1.63
2022-09-09T07:01:34.546Z,1.50
2022-09-09T07:04:01.625Z,1.30
2022-09-09T07:06:33.576Z,1.60
2022-09-09T07:09:04.719Z,1.30
2022-09-09T07:11:34.287Z,1.90
2022-09-09T07:14:01.961Z,1.00
2022-09-09T07:16:28.883Z,1.33
2022-09-09T07:18:58.905Z,1.40
2022-09-09T07:21:27.615Z,1.35
2022-09-09T07:23:55.481Z,1.20
2022-09-09T07:26:27.581Z,1.30
2022-09-09T07:28:54.592Z,1.20
2022-09-09T07:31:31.347Z,1.27
2022-09-09T07:33:58.670Z,1.63
2022-09-09T07:36:36.196Z,1.10
2022-09-09T07:39:06.348Z,1.25
2022-09-09T07:41:37.078Z,1.10
2022-09-09T07:44:09.044Z,1.10
2022-09-09T07:46:36.436Z,1.48
2022-09-09T07:49:04.598Z,1.38
2022-09-09T07:51:34.896Z,1.30
2022-09-09T07:54:06.951Z,1.50
2022-09-09T07:56:34.200Z,1.00
2022-09-09T07:59:00.817Z,1.20
2022-09-09T08:01:33.353Z,1.50
2022-09-09T08:04:03.017Z,1.30
2022-09-09T08:06:32.001Z,1.47
2022-09-09T08:08:58.465Z,1.33
2022-09-09T08:11:27.092Z,1.08
2022-09-09T08:13:57.912Z,1.27
2022-09-09T08:16:30.931Z,1.65
2022-09-09T08:18:58.749Z,1.07
2022-09-09T08:21:31.135Z,1.60
2022-09-09T08:23:59.290Z,1.27
2022-09-09T08:26:35.307Z,1.10
2022-09-09T08:29:03.342Z,1.00
2022-09-09T08:31:38.415Z,1.43
2022-09-09T08:34:06.746Z,1.20
2022-09-09T08:36:36.876Z,1.10
2022-09-09T08:39:04.901Z,1.25
2022-09-09T08:42:06.233Z,1.10
2022-09-09T08:44:35.377Z,0.97
2022-09-09T08:47:40.679Z,1.13
2022-09-09T08:50:26.301Z,0.90
2022-09-09T08:53:06.826Z,1.20
2022-09-09T08:55:46.210Z,1.08
2022-09-09T08:58:20.315Z,1.00
2022-09-09T09:01:10.450Z,1.10
2022-09-09T09:04:09.723Z,1.30
2022-09-09T09:06:44.565Z,0.90
2022-09-09T09:09:29.725Z,0.90
2022-09-09T09:12:02.354Z,1.27
2022-09-09T09:14:31.474Z,0.90
2022-09-09T09:17:00.982Z,1.35
2022-09-09T09:19:29.485Z,1.00
2022-09-09T09:22:08.204Z,1.27
2022-09-09T09:25:06.102Z,1.00
2022-09-09T09:27:34.220Z,0.98
2022-09-09T09:30:30.253Z,0.93
2022-09-09T09:33:02.063Z,0.75
2022-09-09T09:35:28.715Z,1.10
2022-09-09T09:40:56.008Z,0.88
2022-09-09T09:43:29.432Z,1.25
2022-09-09T09:46:16.794Z,1.25
2022-09-09T09:48:44.450Z,1.10
2022-09-09T09:51:16.512Z,0.90
2022-09-09T09:53:43.659Z,1.08
2022-09-09T09:56:12.571Z,1.00
2022-09-09T09:58:45.420Z,0.90
2022-09-09T10:01:36.642Z,0.80
2022-09-09T10:04:24.173Z,1.17
2022-09-09T10:06:51.800Z,0.77
2022-09-09T10:09:29.784Z,0.80
2022-09-09T10:12:13.082Z,1.30
2022-09-09T10:14:54.557Z,1.00
2022-09-09T10:17:52.386Z,1.00
2022-09-09T10:20:40.566Z,0.80
2022-09-09T10:23:21.568Z,0.80
2022-09-09T10:26:00.193Z,0.70
2022-09-09T10:28:39.164Z,0.75
2022-09-09T10:31:23.863Z,1.10
2022-09-09T10:34:14.344Z,0.98
2022-09-09T10:36:47.634Z,1.02
2022-09-09T10:39:40.518Z,1.13
2022-09-09T10:42:17.663Z,1.08
2022-09-09T10:45:07.119Z,1.50
2022-09-09T10:47:36.643Z,1.13
2022-09-09T10:50:15.558Z,0.85
2022-09-09T10:53:09.538Z,1.10
2022-09-09T10:55:41.220Z,1.08
2022-09-09T10:58:15.602Z,1.00
2022-09-09T11:00:46.711Z,1.10
2022-09-09T11:03:20.982Z,1.20
2022-09-09T11:05:52.061Z,1.15
2022-09-09T11:11:12.890Z,1.17
2022-09-09T11:14:25.421Z,1.38
2022-09-09T11:16:57.503Z,1.13
2022-09-09T11:19:44.893Z,1.95
2022-09-09T11:22:35.268Z,1.70
2022-09-09T11:25:34.559Z,1.50
2022-09-09T11:28:48.515Z,1.52
2022-09-09T11:31:39.329Z,0.95
2022-09-09T11:34:22.397Z,1.02
2022-09-09T11:37:19.564Z,1.10
2022-09-09T11:40:10.801Z,1.20
2022-09-09T11:42:37.586Z,1.00
2022-09-09T11:45:24.957Z,1.02
2022-09-09T11:47:56.429Z,1.13
2022-09-09T11:50:22.809Z,1.23
2022-09-09T11:52:50.542Z,0.90
2022-09-09T11:55:32.540Z,1.30
2022-09-09T11:58:07.101Z,0.98
2022-09-09T12:00:38.449Z,1.60
2022-09-09T12:03:06.715Z,1.23
2022-09-09T12:05:52.376Z,1.07
2022-09-09T12:08:28.736Z,1.42
2022-09-09T12:11:04.296Z,1.40
2022-09-09T12:13:32.350Z,1.42
2022-09-09T12:16:00.511Z,1.20
2022-09-09T12:18:38.288Z,1.53
2022-09-09T12:21:34.505Z,1.20
2022-09-09T12:24:12.565Z,1.00
2022-09-09T12:26:45.856Z,1.92
2022-09-09T12:29:30.927Z,1.20
2022-09-09T12:32:17.542Z,1.20
2022-09-09T12:34:50.524Z,0.95
2022-09-09T12:37:25.037Z,1.33
2022-09-09T12:40:00.223Z,1.33
2022-09-09T12:42:28.300Z,1.25
2022-09-09T12:45:04.088Z,1.27
2022-09-09T12:47:31.472Z,1.50
2022-09-09T12:49:58.374Z,1.63
2022-09-09T12:52:31.014Z,1.40
2022-09-09T12:54:59.583Z,1.45
2022-09-09T12:57:27.491Z,1.20
2022-09-09T13:00:10.754Z,1.25
2022-09-09T13:02:37.214Z,1.50
2022-09-09T13:05:26.898Z,1.20
2022-09-09T13:08:03.339Z,1.20
2022-09-09T13:10:52.876Z,1.07
2022-09-09T13:13:28.073Z,1.30
2022-09-09T13:15:57.434Z,1.27
2022-09-09T13:18:30.594Z,1.10
2022-09-09T13:21:01.070Z,1.10
2022-09-09T13:23:33.230Z,1.13
2022-09-09T13:26:02.368Z,1.38
2022-09-09T13:28:33.833Z,1.38
2022-09-09T13:31:07.933Z,1.52
2022-09-09T13:33:39.210Z,1.30
2022-09-09T13:36:08.862Z,1.50
2022-09-09T13:38:53.779Z,1.30
2022-09-09T13:41:22.480Z,1.30
2022-09-09T13:43:49.252Z,1.70
2022-09-09T13:46:51.404Z,1.60
2022-09-09T13:49:18.138Z,1.40
2022-09-09T13:51:47.758Z,1.55
2022-09-09T13:54:16.627Z,1.33
2022-09-09T13:56:44.809Z,1.52
2022-09-09T13:59:17.448Z,1.38
2022-09-09T14:01:43.993Z,1.37
2022-09-09T14:04:11.362Z,1.30
2022-09-09T14:06:39.171Z,1.60
2022-09-09T14:09:12.575Z,1.20
2022-09-09T14:11:39.429Z,1.15
2022-09-09T14:14:06.328Z,1.50
2022-09-09T14:16:33.746Z,1.20
2022-09-09T14:19:00.230Z,1.20
2022-09-09T14:21:27.274Z,1.10
2022-09-09T14:23:53.798Z,1.25
2022-09-09T14:26:22.101Z,1.20
2022-09-09T14:28:55.231Z,1.63
2022-09-09T14:31:23.774Z,1.30
2022-09-09T14:33:51.706Z,1.30
2022-09-09T14:36:18.242Z,1.20
2022-09-09T14:38:44.673Z,1.47
2022-09-09T14:41:18.982Z,1.80
2022-09-09T14:43:46.562Z,1.52
2022-09-09T14:46:16.278Z,1.67
2022-09-09T14:48:43.114Z,1.67
2022-09-09T14:51:20.462Z,1.70
2022-09-09T14:53:47.717Z,1.67
2022-09-09T14:56:16.893Z,2.10
2022-09-09T14:58:44.801Z,1.80
2022-09-09T15:01:20.051Z,1.80
2022-09-09T15:03:53.738Z,1.80
2022-09-09T15:06:21.862Z,2.05
2022-09-09T15:08:50.655Z,1.80
2022-09-09T15:11:17.191Z,1.80
2022-09-09T15:13:45.258Z,1.60
2022-09-09T15:16:14.716Z,1.27
2022-09-09T15:18:45.914Z,0.90
2022-09-09T15:21:14.704Z,0.95
2022-09-09T15:23:41.326Z,1.15
2022-09-09T15:26:08.679Z,0.93
2022-09-09T15:28:38.181Z,0.70
2022-09-09T15:31:15.677Z,0.70
2022-09-09T15:33:42.532Z,0.70
2022-09-09T15:36:23.721Z,0.70
2022-09-09T15:38:50.993Z,0.80
2022-09-09T15:41:20.801Z,0.90
2022-09-09T15:43:50.948Z,1.08
2022-09-09T15:46:27.044Z,0.60
2022-09-09T15:48:59.267Z,0.75
2022-09-09T15:51:44.024Z,0.95
2022-09-09T15:54:24.052Z,0.97
2022-09-09T15:56:58.855Z,0.70
2022-09-09T15:59:28.921Z,0.80
2022-09-09T16:01:55.945Z,0.70
2022-09-09T16:04:26.840Z,0.70
2022-09-09T16:06:55.527Z,0.80
2022-09-09T16:09:22.412Z,0.93
2022-09-09T16:11:49.085Z,0.90
2022-09-09T16:14:16.677Z,0.80
2022-09-09T16:16:43.572Z,0.90
2022-09-09T16:19:13.440Z,0.97
2022-09-09T16:21:49.043Z,1.00
2022-09-09T16:24:19.089Z,0.73
2022-09-09T16:26:48.433Z,0.85
2022-09-09T16:29:16.303Z,0.80
2022-09-09T16:31:42.930Z,0.83
2022-09-09T16:34:10.869Z,1.05
2022-09-09T16:36:40.042Z,0.80
2022-09-09T16:39:10.217Z,0.70
2022-09-09T16:41:37.926Z,1.15
2022-09-09T16:44:06.728Z,0.90
2022-09-09T16:46:36.435Z,1.15
2022-09-09T16:49:05.770Z,0.98
2022-09-09T16:51:34.710Z,1.05
2022-09-09T16:54:02.900Z,1.05
2022-09-09T16:56:33.041Z,0.90
2022-09-09T16:59:04.778Z,1.40
2022-09-09T17:01:34.029Z,1.00
2022-09-09T17:04:03.435Z,0.85
2022-09-09T17:06:40.105Z,0.90
2022-09-09T17:09:11.478Z,0.80
2022-09-09T17:11:39.402Z,0.98
2022-09-09T17:14:07.500Z,0.80
2022-09-09T17:16:35.185Z,1.63
2022-09-09T17:19:02.220Z,1.15
2022-09-09T17:21:29.277Z,1.30
2022-09-09T17:23:56.950Z,1.25
2022-09-09T17:26:27.679Z,1.10
2022-09-09T17:28:59.261Z,0.98
2022-09-09T17:31:28.492Z,0.90
2022-09-09T17:33:56.277Z,1.43
2022-09-09T17:36:26.075Z,1.00
2022-09-09T17:38:53.182Z,1.10
2022-09-09T17:41:39.989Z,1.20
2022-09-09T17:46:41.806Z,1.43
2022-09-09T17:49:14.850Z,1.50
2022-09-09T17:51:42.896Z,1.23
2022-09-09T17:54:15.228Z,1.50
2022-09-09T17:56:42.374Z,1.45
2022-09-09T17:59:13.286Z,1.40
2022-09-09T18:01:44.601Z,1.33
2022-09-09T18:04:14.138Z,1.13
2022-09-09T18:06:44.005Z,1.63
2022-09-09T18:09:17.666Z,1.52
2022-09-09T18:11:49.431Z,1.20
2022-09-09T18:14:27.925Z,1.38
2022-09-09T18:16:54.478Z,1.40
2022-09-09T18:19:24.369Z,1.40
2022-09-09T18:21:51.817Z,1.20
2022-09-09T18:24:21.248Z,1.30
2022-09-09T18:26:50.096Z,1.45
2022-09-09T18:29:25.087Z,1.30
2022-09-09T18:31:53.345Z,1.35
2022-09-09T18:34:20.925Z,1.52
2022-09-09T18:36:55.914Z,1.70
2022-09-09T18:39:27.041Z,2.13
2022-09-09T18:42:01.577Z,1.63
2022-09-09T18:44:34.476Z,1.63
2022-09-09T18:47:02.822Z,1.45
2022-09-09T18:49:29.784Z,1.40
2022-09-09T18:51:56.981Z,2.10
2022-09-09T18:54:26.425Z,1.67
2022-09-09T18:56:56.070Z,1.70
2022-09-09T18:59:23.915Z,1.42
2022-09-09T19:01:52.610Z,1.37
2022-09-09T19:04:21.706Z,1.40
2022-09-09T19:06:49.092Z,1.52
2022-09-09T19:09:18.432Z,1.52
2022-09-09T19:11:46.049Z,1.40
2022-09-09T19:14:15.348Z,1.47
2022-09-09T19:16:41.822Z,1.40
2022-09-09T19:19:12.790Z,1.50
2022-09-09T19:21:41.025Z,1.40
2022-09-09T19:24:22.200Z,1.30
2022-09-09T19:26:54.966Z,1.50
2022-09-09T19:29:24.626Z,1.60
2022-09-09T19:32:29.414Z,2.03
2022-09-09T19:34:39.438Z,2.13
2022-09-09T19:37:06.017Z,2.28
2022-09-09T19:39:34.325Z,2.37
2022-09-09T19:42:01.459Z,2.75
2022-09-09T19:44:28.060Z,2.30
2022-09-09T19:46:55.419Z,2.08
2022-09-09T19:49:22.084Z,2.15
2022-09-09T19:51:48.533Z,1.83
2022-09-09T19:54:15.034Z,2.15
2022-09-09T19:56:43.003Z,1.77
2022-09-09T19:59:11.795Z,2.10
2022-09-09T20:01:41.735Z,2.28
2022-09-09T20:04:08.728Z,2.70
2022-09-09T20:06:38.269Z,2.50
2022-09-09T20:09:06.829Z,2.10
2022-09-09T20:11:34.311Z,2.45
2022-09-09T20:14:01.042Z,2.67
2022-09-09T20:16:30.137Z,2.43
2022-09-09T20:19:00.882Z,2.40
2022-09-09T20:21:33.424Z,2.58
2022-09-09T20:24:02.459Z,2.53
2022-09-09T20:26:32.250Z,2.80
2022-09-09T20:28:58.926Z,2.73
2022-09-09T20:31:28.299Z,3.33
2022-09-09T20:33:56.177Z,2.63
2022-09-09T20:36:28.961Z,2.80
2022-09-09T20:39:00.449Z,2.80
2022-09-09T20:41:30.410Z,2.57
2022-09-09T20:43:59.336Z,3.20
2022-09-09T20:46:28.255Z,2.70
2022-09-09T20:49:02.658Z,2.83
2022-09-09T20:51:33.002Z,2.95
2022-09-09T20:54:06.232Z,2.87
2022-09-09T20:56:37.480Z,3.20
2022-09-09T20:59:05.129Z,2.80
2022-09-09T21:01:31.806Z,3.08
2022-09-09T21:04:00.060Z,3.05
2022-09-09T21:06:26.539Z,3.13
2022-09-09T21:08:52.961Z,3.20
2022-09-09T21:11:19.532Z,3.00
2022-09-09T21:13:45.986Z,3.40
2022-09-09T21:16:15.367Z,3.80
2022-09-09T21:18:43.685Z,3.60
2022-09-09T21:21:10.173Z,3.72
2022-09-09T21:23:36.624Z,3.83
2022-09-09T21:26:04.181Z,4.50
2022-09-09T21:28:31.513Z,4.43
2022-09-09T21:30:58.413Z,4.83
2022-09-09T21:33:28.146Z,4.90
2022-09-09T21:36:01.949Z,5.18
2022-09-09T21:38:29.006Z,5.22
2022-09-09T21:40:55.608Z,5.65
2022-09-09T21:43:23.589Z,6.00
2022-09-09T21:45:50.916Z,5.60
2022-09-09T21:48:19.015Z,5.60
2022-09-09T21:50:48.661Z,5.95
2022-09-09T21:53:18.936Z,6.07
2022-09-09T21:55:47.273Z,5.77
2022-09-09T21:58:15.566Z,5.72
2022-09-09T22:00:45.445Z,6.25
2022-09-09T22:03:14.002Z,5.53
2022-09-09T22:05:45.623Z,6.45
2022-09-09T22:08:13.910Z,6.13
2022-09-09T22:10:45.710Z,6.55
2022-09-09T22:13:14.358Z,6.10
2022-09-09T22:15:43.076Z,6.78
2022-09-09T22:18:09.975Z,7.22
2022-09-09T22:20:41.917Z,6.67
2022-09-09T22:23:09.498Z,7.32
2022-09-09T22:25:37.218Z,8.05
2022-09-09T22:28:05.778Z,7.32
2022-09-09T22:30:33.646Z,7.80
2022-09-09T22:33:01.241Z,7.90
2022-09-09T22:35:29.032Z,7.97
2022-09-09T22:37:55.900Z,8.68
2022-09-09T22:40:22.965Z,7.75
2022-09-09T22:42:52.703Z,8.20
2022-09-09T22:45:20.770Z,8.63
2022-09-09T22:47:47.655Z,8.23
2022-09-09T22:50:14.172Z,8.15
2022-09-09T22:52:40.598Z,8.73
2022-09-09T22:55:07.684Z,8.07
2022-09-09T22:57:34.170Z,8.23
2022-09-09T23:00:01.458Z,8.50
2022-09-09T23:02:29.014Z,8.90
2022-09-09T23:04:55.406Z,8.43
2022-09-09T23:07:23.400Z,8.35
2022-09-09T23:09:49.814Z,8.73
2022-09-09T23:12:18.819Z,8.88
2022-09-09T23:14:45.316Z,8.35
2022-09-09T23:17:16.862Z,8.55
2022-09-09T23:19:43.615Z,7.40
2022-09-09T23:22:10.642Z,7.87
2022-09-09T23:24:37.353Z,7.88
2022-09-09T23:27:03.965Z,7.57
2022-09-09T23:29:30.494Z,7.32
2022-09-09T23:31:56.917Z,7.03
2022-09-09T23:34:23.343Z,7.10
2022-09-09T23:36:49.758Z,6.88
2022-09-09T23:39:16.178Z,6.78
2022-09-09T23:41:42.688Z,6.68
2022-09-09T23:44:10.036Z,6.07
2022-09-09T23:46:36.510Z,5.83
2022-09-09T23:49:03.740Z,5.28
2022-09-09T23:51:31.318Z,6.28
2022-09-09T23:54:01.881Z,5.38
2022-09-09T23:56:32.311Z,5.43
2022-09-09T23:58:59.559Z,5.10
